• Join FlightAware (Why Join?)
  • Login
  • US Flag 
12:36AM EDT


 

Airport Tracker/Info


-or-


 

Live Flight TrackerFlight Track Log ✈ UAL1208 ✈ 06-May-2013 ✈ KSFO - KBWI

Flight Track Log - Related Links

Times and Time Zones

All times are in EDT time to prevent confusion due to time zone crossing. See the UAL1208 flight status page for this flight to view local times or setup timezone preferences in your user account.

Time Position Orientation Groundspeed Altitude Reporting Facility
EDT Latitude Longitude Course Direction KTS MPH feet Rate Location/Type
07:14PM 37.6930 -122.3270 69° East 260 299 4,400  Level FlightAware
07:15PM 37.7040 -122.2930 68° East 265 305 5,600 2,940 Climbing FlightAware
07:15PM 37.7180 -122.2480 69° East 275 316 7,100 3,120 Climbing FlightAware
07:16PM 37.7300 -122.2100 68° East 274 315 8,500 3,120 Climbing FlightAware
07:16PM 37.7430 -122.1640 70° East 277 319 10,000 1,800 Climbing FlightAware
07:17PM 37.7630 -122.0970 69° East 327 376 10,600 1,380 Climbing FlightAware
07:18PM 37.7870 -122.0130 70° East 359 413 12,000 2,220 Climbing FlightAware
07:18PM 37.8100 -121.9340 70° East 366 421 13,800 2,700 Climbing FlightAware
07:19PM 37.8360 -121.8440 70° East 369 425 15,900 3,060 Climbing FlightAware
07:20PM 37.8590 -121.7640 70° East 352 405 18,200 3,000 Climbing FlightAware
07:20PM 37.8810 -121.6870 70° East 351 404 19,900 2,460 Climbing FlightAware
07:21PM 37.9050 -121.6040 70° East 348 400 21,700 2,100 Climbing FlightAware
07:22PM 37.9290 -121.5220 70° East 354 407 22,900 1,740 Climbing FlightAware
07:23PM 37.9540 -121.4320 71° East 362 417 24,200 1,680 Climbing FlightAware
07:23PM 37.9750 -121.3560 71° East 367 422 25,300 1,620 Climbing FlightAware
07:24PM 37.9990 -121.2730 70° East 371 427 26,400 1,620 Climbing FlightAware
07:25PM 38.0250 -121.1790 71° East 374 430 27,600 1,440 Climbing FlightAware
07:25PM 38.0480 -121.0990 70° East 377 434 28,500 1,260 Climbing FlightAware
07:26PM 38.0720 -121.0130 70° East 386 444 29,300 1,020 Climbing FlightAware
07:27PM 38.0960 -120.9150 73° East 395 455 30,000 900 Climbing FlightAware
07:27PM 38.1190 -120.8230 72° East 403 464 30,600 840 Climbing FlightAware
07:28PM 38.1440 -120.7180 73° East 412 474 31,200 840 Climbing FlightAware
07:29PM 38.1650 -120.6270 74° East 416 479 31,800 840 Climbing FlightAware
07:30PM 38.1910 -120.5210 73° East 422 486 32,400 600 Climbing FlightAware
07:31PM 38.2310 -120.2960 77° East 439 505 33,300 660 Climbing FlightAware
07:32PM 38.2520 -120.1780 77° East 441 507 34,000 900 Climbing FlightAware
07:33PM 38.2680 -120.0820 78° East 440 506 34,600 780 Climbing FlightAware
07:33PM 38.2830 -119.9930 78° East 442 509 35,000 240 Climbing FlightAware
07:34PM 38.3060 -119.8520 78° East 444 511 35,000  Level FlightAware
07:35PM 38.3240 -119.7530 77° East 444 511 35,000  Level FlightAware
07:35PM 38.3410 -119.6570 77° East 445 512 35,000  Level FlightAware
07:36PM 38.3570 -119.5700 77° East 445 512 35,000  Level FlightAware
07:37PM 38.3790 -119.4220 79° East 447 514 35,000  Level FlightAware
07:37PM 38.3960 -119.3140 79° East 446 513 35,000  Level FlightAware
07:38PM 38.4180 -119.1850 78° East 446 513 35,000  Level FlightAware
07:39PM 38.4320 -119.0970 78° East 446 513 35,000  Level FlightAware
07:40PM 38.4470 -119.0100 78° East 446 513 35,000  Level FlightAware
07:41PM 38.4650 -118.9000 78° East 446 513 35,000  Level FlightAware
07:41PM 38.4800 -118.8130 78° East 446 513 35,000  Level FlightAware
07:42PM 38.4940 -118.7250 78° East 446 513 35,000  Level FlightAware
07:43PM 38.5090 -118.6370 78° East 446 513 35,000  Level FlightAware
07:43PM 38.5230 -118.5500 78° East 446 513 35,000  Level FlightAware
07:44PM 38.5410 -118.4400 78° East 446 513 35,000  Level FlightAware
07:45PM 38.5560 -118.3520 78° East 446 513 35,000  Level FlightAware
07:45PM 38.5710 -118.2640 78° East 446 513 35,000  Level FlightAware
07:46PM 38.5850 -118.1770 78° East 446 513 35,000  Level FlightAware
07:47PM 38.6000 -118.0890 78° East 446 513 35,000  Level FlightAware
07:48PM 38.6180 -117.9790 78° East 446 513 35,000  Level FlightAware
07:49PM 38.6594 -117.6272 78° East 444 511 35,000  Level Salt Lake Center
07:51PM 38.7044 -117.3139 79° East 445 512 35,000  Level Salt Lake Center
07:52PM 38.7317 -117.1256 79° East 446 513 35,000  Level Salt Lake Center
07:53PM 38.7544 -116.9700 79° East 444 511 35,000  Level Salt Lake Center
07:53PM 38.7703 -116.8806 77° East 445 512 35,000  Level Oakland Center
07:54PM 38.7764 -116.8142 83° East 442 509 35,000  Level Salt Lake Center
07:55PM 38.7989 -116.6589 79° East 442 509 35,000  Level Salt Lake Center
07:56PM 38.8194 -116.5047 80° East 439 505 35,000  Level Salt Lake Center
07:57PM 38.8408 -116.3494 80° East 441 507 35,000  Level Salt Lake Center
07:59PM 38.8778 -116.0853 80° East 442 509 35,000  Level Oakland Center
07:59PM 38.8833 -116.0386 81° East 443 510 35,000  Level Salt Lake Center
08:00PM 38.9042 -115.8839 80° East 442 509 35,000  Level Salt Lake Center
08:01PM 38.9247 -115.7294 80° East 439 505 35,000  Level Salt Lake Center
08:02PM 38.9486 -115.5444 81° East 437 503 35,000  Level Salt Lake Center
08:04PM 38.9875 -115.2453 80° East 441 507 35,000  Level Salt Lake Center
08:05PM 39.0067 -115.0906 81° East 440 506 35,000  Level Salt Lake Center
08:06PM 39.0264 -114.9367 81° East 438 504 35,000  Level Salt Lake Center
08:08PM 39.0575 -114.7045 80° East  Level FlightAware Approximate
08:08PM 39.0692 -114.5983 80° East 436 502 35,000  Level Salt Lake Center
08:10PM 39.1050 -114.2922 81° East 433 498 35,000  Level Salt Lake Center
08:12PM 39.1414 -113.9847 81° East 437 503 35,000  Level Salt Lake Center
08:14PM 39.1706 -113.7760 80° East  Level FlightAware Approximate
08:14PM 39.1764 -113.6750 80° East 439 505 35,000  Level Salt Lake Center
08:15PM 39.1933 -113.5219 82° East 433 498 35,000  Level Salt Lake Center
08:17PM 39.2309 -113.3290 76° East  Level FlightAware Approximate
08:17PM 39.2311 -113.1839 76° East 432 497 35,000  Level Salt Lake Center
08:23PM 39.3460 -112.2740 76° East 439 505 35,000  Level FlightAware
08:24PM 39.3630 -112.1840 76° East 440 506 35,000  Level FlightAware
08:25PM 39.3800 -112.0970 76° East 440 506 35,000  Level FlightAware
08:25PM 39.3960 -112.0100 77° East 440 506 35,000  Level FlightAware
08:26PM 39.4130 -111.9230 76° East 440 506 35,000  Level FlightAware
08:27PM 39.4340 -111.8140 76° East 440 506 35,000  Level FlightAware
08:27PM 39.4510 -111.7270 76° East 440 506 35,000  Level FlightAware
08:28PM 39.4670 -111.6400 77° East 440 506 35,000  Level FlightAware
08:29PM 39.4970 -111.4460 79° East 430 495 35,000  Level FlightAware
08:29PM 39.5170 -111.3330 77° East 428 493 35,000  Level FlightAware
08:30PM 39.5360 -111.2220 77° East 426 490 35,000  Level FlightAware
08:31PM 39.5530 -111.1210 78° East 424 488 35,000  Level FlightAware
08:32PM 39.5690 -111.0190 78° East 423 487 35,000  Level FlightAware
08:32PM 39.5850 -110.9160 79° East 422 486 35,000  Level FlightAware
08:33PM 39.6060 -110.8000 77° East 431 496 35,000  Level FlightAware
08:34PM 39.6390 -110.6100 77° East 430 495 35,000  Level FlightAware
08:35PM 39.6600 -110.4850 78° East 430 495 35,000  Level FlightAware
08:36PM 39.6780 -110.3820 77° East 430 495 35,000  Level FlightAware
08:37PM 39.7130 -110.1730 78° East 430 495 35,000  Level FlightAware
08:38PM 39.7310 -110.0670 78° East 429 494 35,000  Level FlightAware
08:40PM 39.7720 -109.8170 78° East 431 496 35,000  Level FlightAware
08:40PM 39.7880 -109.7200 78° East 432 497 35,000  Level FlightAware
08:41PM 39.8070 -109.6040 78° East 433 498 35,000  Level FlightAware
08:41PM 39.8200 -109.5230 78° East 434 499 35,000  Level FlightAware
08:43PM 39.8520 -109.3270 78° East 433 498 35,000  Level FlightAware
08:44PM 39.8700 -109.2110 79° East 432 497 35,000  Level FlightAware
08:44PM 39.8870 -109.1090 78° East 430 495 35,000  Level FlightAware
08:45PM 39.9030 -109.0060 79° East 429 494 35,000  Level FlightAware
08:46PM 39.9210 -108.8940 78° East 427 491 35,000  Level FlightAware
08:46PM 39.9360 -108.7930 79° East 426 490 35,000  Level FlightAware
08:47PM 39.9520 -108.6880 79° East 425 489 35,000  Level FlightAware
08:48PM 39.9690 -108.5790 78° East 425 489 35,000  Level FlightAware
08:48PM 39.9850 -108.4750 79° East 425 489 35,000  Level FlightAware
08:49PM 40.0020 -108.3650 79° East 424 488 35,000  Level FlightAware
08:50PM 40.0170 -108.2620 79° East 423 487 35,000  Level FlightAware
08:50PM 40.0310 -108.1680 79° East 424 488 35,000  Level FlightAware
08:51PM 40.0490 -108.0480 79° East 424 488 35,000  Level FlightAware
08:52PM 40.0630 -107.9580 78° East 425 489 35,000  Level FlightAware
08:53PM 40.0860 -107.8460 75° East 434 499 35,000  Level FlightAware
08:53PM 40.1100 -107.7410 73° East 435 501 35,000  Level FlightAware
08:54PM 40.1330 -107.6410 73° East 437 503 35,000  Level FlightAware
08:55PM 40.1570 -107.5370 73° East 438 504 35,000  Level FlightAware
08:55PM 40.1830 -107.4240 73° East 440 506 35,000  Level FlightAware
08:56PM 40.2100 -107.3070 73° East 442 509 35,000  Level FlightAware
08:57PM 40.2290 -107.2190 74° East 442 509 35,000  Level FlightAware
08:58PM 40.2630 -107.0690 73° East 441 507 35,000  Level FlightAware
08:58PM 40.2890 -106.9530 74° East 442 509 35,000  Level FlightAware
08:59PM 40.2963 -106.9220 73° East 443 510 35,000  Level FlightAware ADS-B
08:59PM 40.3136 -106.8440 74° East 444 511 35,000  Level FlightAware ADS-B
09:00PM 40.3385 -106.7320 74° East 444 511 35,000  Level FlightAware ADS-B
09:01PM 40.3600 -106.6350 74° East 446 513 35,000  Level FlightAware
09:01PM 40.3830 -106.5310 74° East 447 514 35,000  Level FlightAware
09:02PM 40.4100 -106.4050 74° East 448 516 35,000  Level FlightAware
09:03PM 40.4340 -106.2960 74° East 450 518 35,000  Level FlightAware
09:03PM 40.4590 -106.1810 74° East 453 521 35,000  Level FlightAware
09:04PM 40.4820 -106.0750 74° East 454 522 35,000  Level FlightAware
09:05PM 40.5020 -105.9780 75° East 456 525 35,000  Level FlightAware
09:05PM 40.5220 -105.8880 74° East 457 526 35,000  Level FlightAware
09:06PM 40.5440 -105.7810 75° East 459 528 35,000  Level FlightAware
09:07PM 40.5710 -105.6550 74° East 461 531 35,000  Level FlightAware
09:07PM 40.5930 -105.5500 75° East 462 532 35,000  Level FlightAware
09:07PM 40.5987 -105.5210 75° East 462 532 35,000  Level FlightAware ADS-B
09:08PM 40.6164 -105.4360 75° East 463 533 35,000  Level FlightAware ADS-B
09:09PM 40.6357 -105.3430 75° East 463 533 35,000  Level FlightAware ADS-B
09:09PM 40.6589 -105.2310 75° East 461 531 35,000  Level FlightAware ADS-B
09:10PM 40.6775 -105.1400 75° East 460 529 35,000  Level FlightAware ADS-B
09:10PM 40.6945 -105.0570 75° East 460 529 35,000  Level FlightAware ADS-B
09:11PM 40.7111 -104.9750 75° East 459 528 35,000  Level FlightAware ADS-B
09:11PM 40.7285 -104.8890 75° East 459 528 35,000  Level FlightAware ADS-B
09:12PM 40.7450 -104.8080 75° East 458 527 35,000  Level FlightAware ADS-B
09:12PM 40.7614 -104.7260 75° East 459 528 35,000  Level FlightAware ADS-B
09:13PM 40.7790 -104.6390 75° East 460 529 35,000  Level FlightAware ADS-B
09:13PM 40.7954 -104.5570 75° East 461 531 35,000  Level FlightAware ADS-B
09:14PM 40.8119 -104.4740 75° East 461 531 35,000  Level FlightAware ADS-B
09:14PM 40.8290 -104.3880 75° East 461 531 35,000 60 Level FlightAware ADS-B
09:15PM 40.8452 -104.3050 76° East 460 529 35,100 960 Climbing FlightAware ADS-B
09:15PM 40.8609 -104.2240 76° East 450 518 36,000 1,560 Climbing FlightAware ADS-B
09:16PM 40.8762 -104.1450 76° East 441 507 36,700 960 Climbing FlightAware ADS-B
09:16PM 40.8918 -104.0650 76° East 441 507 37,000 240 Climbing FlightAware ADS-B
09:17PM 40.9072 -103.9860 76° East 441 507 37,000  Level FlightAware ADS-B
09:17PM 40.9229 -103.9060 75° East 442 509 37,000  Level FlightAware ADS-B
09:18PM 40.9384 -103.8260 76° East 443 510 37,000  Level FlightAware ADS-B
09:18PM 40.9536 -103.7460 76° East 443 510 37,000  Level FlightAware ADS-B
09:19PM 40.9689 -103.6660 76° East 443 510 37,000  Level FlightAware ADS-B
09:20PM 40.9842 -103.5850 76° East 444 511 37,000  Level FlightAware ADS-B
09:20PM 40.9993 -103.5050 76° East 444 511 37,000  Level FlightAware ADS-B
09:21PM 41.0148 -103.4230 76° East 445 512 37,000  Level FlightAware ADS-B
09:21PM 41.0316 -103.3330 76° East 445 512 37,000  Level FlightAware ADS-B
09:22PM 41.0467 -103.2530 76° East 445 512 37,000  Level FlightAware ADS-B
09:22PM 41.0614 -103.1740 76° East 446 513 37,000  Level FlightAware ADS-B
09:23PM 41.0763 -103.0940 76° East 447 514 37,000  Level FlightAware ADS-B
09:23PM 41.0911 -103.0140 76° East 448 516 37,000  Level FlightAware ADS-B
09:23PM 41.0982 -102.9640 79° East 450 518 37,000  Level FlightAware ADS-B
09:24PM 41.1050 -102.8800 84° East 450 518 37,000  Level FlightAware ADS-B
09:24PM 41.1117 -102.7960 84° East 452 520 37,000  Level FlightAware ADS-B
09:25PM 41.1185 -102.7080 84° East 453 521 37,000  Level FlightAware ADS-B
09:25PM 41.1249 -102.6250 84° East 454 522 37,000  Level FlightAware ADS-B
09:26PM 41.1318 -102.5370 84° East 455 524 37,000  Level FlightAware ADS-B
09:27PM 41.1382 -102.4530 84° East 456 525 37,000  Level FlightAware ADS-B
09:27PM 41.1451 -102.3630 84° East 458 527 37,000  Level FlightAware ADS-B
09:28PM 41.1515 -102.2780 84° East 460 529 37,000  Level FlightAware ADS-B
09:28PM 41.1577 -102.1930 84° East 462 532 37,000  Level FlightAware ADS-B
09:29PM 41.1638 -102.1080 85° East 463 533 37,000  Level FlightAware ADS-B
09:29PM 41.1702 -102.0220 84° East 465 535 37,000  Level FlightAware ADS-B
09:30PM 41.1767 -101.9300 85° East 466 536 37,000  Level FlightAware ADS-B
09:30PM 41.1830 -101.8410 85° East 467 537 37,000  Level FlightAware ADS-B
09:31PM 41.1920 -101.7070 85° East 468 539 37,000  Level FlightAware
09:31PM 41.1985 -101.6170 84° East 468 539 37,000  Level FlightAware ADS-B
09:32PM 41.2045 -101.5290 85° East 469 540 37,000  Level FlightAware ADS-B
09:32PM 41.2105 -101.4390 85° East 470 541 37,000  Level FlightAware ADS-B
09:33PM 41.2167 -101.3470 85° East 471 542 37,000  Level FlightAware ADS-B
09:34PM 41.2237 -101.2430 85° East 471 542 37,000  Level FlightAware ADS-B
09:34PM 41.2292 -101.1547 85° East 470 541 37,000  Level Denver Center
09:35PM 41.2417 -100.9597 85° East 474 545 37,000  Level Denver Center
09:36PM 41.2519 -100.7922 85° East 472 543 37,000  Level Denver Center
09:37PM 41.2639 -100.5964 85° East 473 544 37,000  Level Denver Center
09:38PM 41.2742 -100.4300 85° East 470 541 37,000  Level Denver Center
09:39PM 41.2856 -100.2350 85° East 471 542 37,000  Level Denver Center
09:41PM 41.2950 -100.0686 86° East 472 543 37,000  Level Denver Center
09:42PM 41.3047 -99.9014 86° East 472 543 37,000  Level Denver Center
09:43PM 41.3142 -99.7056 86° East 474 545 37,000  Level Denver Center
09:44PM 41.3222 -99.5372 86° East 475 547 37,000  Level Denver Center
09:45PM 41.3325 -99.3475 86° East 476 548 37,000  Level Denver Center
09:46PM 41.3450 -99.0628 87° East 474 545 37,000  Level Minneapolis Center
09:47PM 41.3528 -98.8889 87° East 473 544 37,000  Level Minneapolis Center
09:48PM 41.3600 -98.7136 87° East 473 544 37,000  Level Minneapolis Center
09:49PM 41.3686 -98.5392 86° East 473 544 37,000  Level Minneapolis Center
09:50PM 41.3761 -98.3581 87° East 473 544 37,000  Level Minneapolis Center
09:51PM 41.3814 -98.1836 88° East 471 542 37,000  Level Minneapolis Center
09:52PM 41.3878 -97.9828 88° East 469 540 37,000  Level Minneapolis Center
09:53PM 41.3928 -97.8103 88° East 467 537 37,000  Level Minneapolis Center
09:55PM 41.3986 -97.6356 87° East 471 542 37,000  Level Minneapolis Center
09:57PM 41.4069 -97.2883 88° East 470 541 37,000  Level Minneapolis Center
09:58PM 41.4106 -97.1150 88° East 470 541 37,000  Level Minneapolis Center
09:59PM 41.4139 -96.9408 88° East 470 541 37,000  Level Minneapolis Center
10:00PM 41.4192 -96.6994 88° East 467 537 37,000  Level Minneapolis Center
10:01PM 41.4228 -96.5261 88° East 467 537 37,000  Level Minneapolis Center
10:02PM 41.4261 -96.3531 88° East 467 537 37,000  Level Minneapolis Center
10:03PM 41.4278 -96.1681 89° East 469 540 37,000  Level Minneapolis Center
10:04PM 41.4311 -95.9958 88° East 466 536 37,000  Level Minneapolis Center
10:05PM 41.4333 -95.8225 89° East 467 537 37,000  Level Minneapolis Center
10:10PM 41.4400 -94.9110 89° East 447 514 37,000  Level FlightAware
10:11PM 41.4410 -94.7810 89° East 447 514 37,000  Level FlightAware
10:12PM 41.4420 -94.6630 89° East 447 514 37,000  Level FlightAware
10:13PM 41.4440 -94.5700 88° East 447 514 37,000  Level FlightAware
10:13PM 41.4410 -94.4070 91° East 445 512 37,000  Level FlightAware
10:14PM 41.4410 -94.2620 90° East 444 511 37,000  Level FlightAware
10:15PM 41.4400 -94.1410 91° East 442 509 37,000  Level FlightAware
10:16PM 41.4400 -94.0550 90° East 442 509 37,000  Level FlightAware
10:16PM 41.4390 -93.9290 91° East 441 507 37,000  Level FlightAware
10:17PM 41.4390 -93.8050 90° East 445 512 37,000  Level FlightAware
10:18PM 41.4380 -93.6970 91° East 448 516 37,000  Level FlightAware
10:18PM 41.4410 -93.5820 88° East 448 516 37,000  Level FlightAware
10:19PM 41.4470 -93.4580 86° East 447 514 37,000  Level FlightAware
10:20PM 41.4520 -93.3480 86° East 447 514 37,000  Level FlightAware
10:21PM 41.4580 -93.2230 86° East 445 512 37,000  Level FlightAware
10:21PM 41.4620 -93.1140 87° East 441 507 37,000  Level FlightAware
10:22PM 41.4670 -93.0010 87° East 440 506 37,000  Level FlightAware
10:23PM 41.4730 -92.8800 86° East 438 504 37,000  Level FlightAware
10:23PM 41.4770 -92.7720 87° East 436 502 37,000  Level FlightAware
10:25PM 41.4840 -92.5920 87° East 433 498 37,000  Level FlightAware
10:25PM 41.4890 -92.4720 87° East 432 497 37,000  Level FlightAware
10:26PM 41.4930 -92.3710 87° East 431 496 37,000  Level FlightAware
10:27PM 41.4970 -92.2680 87° East 430 495 37,000  Level FlightAware
10:27PM 41.5010 -92.1410 88° East 433 498 37,000  Level FlightAware
10:28PM 41.5050 -92.0290 87° East 437 503 37,000  Level FlightAware
10:29PM 41.5090 -91.9200 87° East 436 502 37,000  Level FlightAware
10:29PM 41.5130 -91.8010 87° East 434 499 37,000  Level FlightAware
10:30PM 41.5170 -91.6870 87° East 430 495 37,000  Level FlightAware
10:31PM 41.5120 -91.5720 93° East 423 487 37,000  Level FlightAware
10:32PM 41.4960 -91.4740 102° East 421 484 37,000  Level FlightAware
10:32PM 41.4750 -91.3550 103° East 421 484 37,000  Level FlightAware
10:33PM 41.4590 -91.2610 103° East 421 484 37,000  Level FlightAware
10:34PM 41.4410 -91.1520 102° East 424 488 37,000  Level FlightAware
10:34PM 41.4210 -91.0410 103° East 426 490 37,000  Level FlightAware
10:35PM 41.4040 -90.9380 102° East 427 491 37,000  Level FlightAware
10:36PM 41.3840 -90.8240 103° East 427 491 37,000  Level FlightAware
10:36PM 41.3650 -90.7180 103° East 428 493 37,000  Level FlightAware
10:37PM 41.3470 -90.6180 103° East 428 493 37,000  Level FlightAware
10:38PM 41.3310 -90.5050 101° East 428 493 37,000  Level FlightAware
10:39PM 41.3190 -90.4010 99° East 428 493 37,000  Level FlightAware
10:39PM 41.3080 -90.2990 98° East 428 493 37,000  Level FlightAware
10:40PM 41.2940 -90.1800 99° East 429 494 37,000  Level FlightAware
10:41PM 41.2810 -90.0740 99° East 428 493 37,000  Level FlightAware
10:41PM 41.2680 -89.9610 99° East 427 491 37,000  Level FlightAware
10:42PM 41.2560 -89.8560 99° East 426 490 37,000  Level FlightAware
10:43PM 41.2440 -89.7550 99° East 424 488 37,000  Level FlightAware
10:43PM 41.2290 -89.6330 99° East 422 486 37,000  Level FlightAware
10:44PM 41.2170 -89.5320 99° East 421 484 37,000  Level FlightAware
10:45PM 41.2030 -89.4190 99° East 420 483 37,000  Level FlightAware
10:46PM 41.1910 -89.3180 99° East 420 483 37,000  Level FlightAware
10:46PM 41.1780 -89.2150 99° East 420 483 37,000  Level FlightAware
10:47PM 41.1640 -89.0990 99° East 419 482 37,000  Level FlightAware
10:48PM 41.1510 -88.9970 100° East 419 482 37,000  Level FlightAware
10:48PM 41.1370 -88.8870 100° East 418 481 37,000  Level FlightAware
10:49PM 41.1240 -88.7860 100° East 417 480 37,000  Level FlightAware
10:50PM 41.1110 -88.6880 100° East 417 480 37,000  Level FlightAware
10:50PM 41.0960 -88.5700 100° East 417 480 37,000  Level FlightAware
10:51PM 41.0830 -88.4700 100° East 417 480 37,000  Level FlightAware
10:52PM 41.0690 -88.3600 100° East 416 479 37,000  Level FlightAware
10:53PM 41.0550 -88.2570 100° East 414 476 37,000  Level FlightAware
10:53PM 41.0420 -88.1600 100° East 413 475 37,000  Level FlightAware
10:54PM 41.0260 -88.0440 100° East 412 474 37,000  Level FlightAware
10:55PM 41.0130 -87.9470 100° East 412 474 37,000  Level FlightAware
10:55PM 40.9980 -87.8360 100° East 412 474 37,000  Level FlightAware
10:56PM 40.9850 -87.7390 100° East 412 474 37,000  Level FlightAware
10:57PM 40.9710 -87.6420 101° East 413 475 37,000  Level FlightAware
10:57PM 40.9550 -87.5270 100° East 414 476 37,000  Level FlightAware
10:58PM 40.9420 -87.4280 100° East 417 480 37,000  Level FlightAware
10:59PM 40.9260 -87.3170 101° East 420 483 37,000  Level FlightAware
11:00PM 40.9110 -87.2110 101° East 421 484 37,000  Level FlightAware
11:00PM 40.8960 -87.1100 101° East 420 483 37,000  Level FlightAware
11:01PM 40.8800 -87.0000 101° East 415 478 37,000  Level FlightAware
11:02PM 40.8650 -86.8980 101° East 411 473 37,000  Level FlightAware
11:02PM 40.8520 -86.8040 100° East 406 467 37,000  Level FlightAware
11:03PM 40.8350 -86.6920 101° East 406 467 37,000  Level FlightAware
11:04PM 40.8220 -86.6020 101° East 407 468 37,000  Level FlightAware
11:04PM 40.8050 -86.4890 101° East 408 470 37,000  Level FlightAware
11:05PM 40.7900 -86.3870 101° East 409 471 37,000  Level FlightAware
11:06PM 40.7740 -86.2800 101° East 413 475 37,000  Level FlightAware
11:07PM 40.7590 -86.1810 101° East 414 476 37,000  Level FlightAware
11:07PM 40.7440 -86.0830 101° East 415 478 37,000  Level FlightAware
11:08PM 40.7240 -85.9500 101° East 415 478 37,000  Level FlightAware
11:09PM 40.7060 -85.8350 102° East 415 478 37,000  Level FlightAware
11:10PM 40.6900 -85.7360 102° East 415 478 37,000  Level FlightAware
11:10PM 40.6720 -85.6200 102° East 415 478 37,000  Level FlightAware
11:11PM 40.6530 -85.5030 102° East 414 476 37,000  Level FlightAware
11:12PM 40.6360 -85.3940 102° East 413 475 37,000  Level FlightAware
11:13PM 40.6170 -85.2770 102° East 412 474 37,000  Level FlightAware
11:13PM 40.6020 -85.1810 102° East 412 474 37,000 -240 Level FlightAware
11:14PM 40.5840 -85.0680 102° East 415 478 36,700 -600 Descending FlightAware
11:15PM 40.5700 -84.9850 102° East 413 475 36,200 -540 Descending FlightAware
11:15PM 40.5520 -84.8740 102° East 404 465 36,000 -480 Descending FlightAware
11:16PM 40.5340 -84.7650 102° East 393 452 35,500 -720 Descending FlightAware
11:17PM 40.5190 -84.6780 103° East 387 445 35,000 -360 Descending FlightAware
11:18PM 40.5010 -84.5710 102° East 393 452 35,000  Level FlightAware
11:18PM 40.4860 -84.4790 102° East 395 455 35,000  Level FlightAware
11:19PM 40.4700 -84.3830 102° East 395 455 35,000  Level FlightAware
11:20PM 40.4530 -84.2820 102° East 394 453 35,000  Level FlightAware
11:20PM 40.4370 -84.1900 103° East 392 451 35,000  Level FlightAware
11:21PM 40.4190 -84.0820 102° East 391 450 35,000  Level FlightAware
11:22PM 40.4030 -83.9890 103° East 389 448 35,000  Level FlightAware
11:22PM 40.3870 -83.8980 103° East 387 445 35,000  Level FlightAware
11:23PM 40.3690 -83.7940 103° East 387 445 35,000  Level FlightAware
11:24PM 40.3530 -83.7070 104° East 387 445 35,000  Level FlightAware
11:25PM 40.3350 -83.6020 103° East 386 444 35,000  Level FlightAware
11:25PM 40.3190 -83.5100 103° East 386 444 35,000  Level FlightAware
11:26PM 40.3010 -83.4100 103° East 386 444 35,000  Level FlightAware
11:27PM 40.2850 -83.3190 103° East 384 442 35,000  Level FlightAware
11:27PM 40.2660 -83.2150 103° East 383 441 35,000  Level FlightAware
11:28PM 40.2490 -83.1240 104° East 383 441 35,000  Level FlightAware
11:29PM 40.2340 -83.0360 103° East 382 440 35,000  Level FlightAware
11:29PM 40.2170 -82.9470 104° East 381 438 35,000  Level FlightAware
11:30PM 40.1980 -82.8440 104° East 381 438 35,000  Level FlightAware
11:31PM 40.1820 -82.7560 103° East 379 436 35,000  Level FlightAware
11:32PM 40.1640 -82.6550 103° East 377 434 35,000  Level FlightAware
11:32PM 40.1500 -82.5680 102° East 378 435 35,000  Level FlightAware
11:33PM 40.1430 -82.4710 95° East 378 435 35,000  Level FlightAware
11:34PM 40.1360 -82.3760 95° East 377 434 35,000  Level FlightAware
11:34PM 40.1290 -82.2720 95° East 377 434 35,000  Level FlightAware
11:35PM 40.1230 -82.1820 95° East 378 435 35,000  Level FlightAware
11:36PM 40.1160 -82.0890 96° East 378 435 35,000  Level FlightAware
11:36PM 40.1090 -81.9880 95° East 380 437 35,000  Level FlightAware
11:37PM 40.1020 -81.8950 96° East 381 438 35,000  Level FlightAware
11:38PM 40.0950 -81.8070 96° East 383 441 35,000  Level FlightAware
11:39PM 40.0870 -81.7000 96° East 385 443 35,000  Level FlightAware
11:39PM 40.0800 -81.6090 96° East 385 443 35,000  Level FlightAware
11:40PM 40.0720 -81.5030 96° East 386 444 35,000  Level FlightAware
11:41PM 40.0590 -81.4140 101° East 387 445 35,000  Level FlightAware
11:41PM 40.0430 -81.3240 103° East 387 445 35,000  Level FlightAware
11:42PM 40.0250 -81.2190 103° East 388 447 35,000  Level FlightAware
11:43PM 40.0100 -81.1290 102° East 388 447 35,000  Level FlightAware
11:43PM 39.9930 -81.0360 103° East 387 445 35,000  Level FlightAware
11:44PM 39.9750 -80.9340 103° East 386 444 35,000  Level FlightAware
11:45PM 39.9600 -80.8450 102° East 387 445 35,000  Level FlightAware
11:46PM 39.9420 -80.7430 103° East 387 445 35,000  Level FlightAware
11:46PM 39.9250 -80.6510 104° East 388 447 35,000  Level FlightAware
11:47PM 39.9070 -80.5500 103° East 386 444 35,000  Level FlightAware
11:47PM 39.8950 -80.4850 104° East 386 444 35,000  Level FlightAware
11:48PM 39.8750 -80.3760 103° East 387 445 35,000  Level FlightAware
11:49PM 39.8610 -80.2950 103° East 387 445 35,000 -540 Level FlightAware
11:50PM 39.8430 -80.1980 104° East 35,000 -720 Level FlightAware
11:50PM 39.8220 -80.0820 103° East 390 449 33,900 -1,380 Descending FlightAware
11:51PM 39.8040 -79.9870 104° East 394 453 33,000 -1,380 Descending FlightAware
11:52PM 39.7870 -79.8980 104° East 399 459 32,100 -1,440 Descending FlightAware
11:53PM 39.7690 -79.7970 103° East 403 464 31,000 -1,560 Descending FlightAware
11:53PM 39.7500 -79.6950 104° East 398 458 29,900 -1,620 Descending FlightAware
11:54PM 39.7320 -79.6040 104° East 393 452 28,900 -1,500 Descending FlightAware
11:55PM 39.7130 -79.5000 103° East 388 447 27,800 -1,500 Descending FlightAware
11:55PM 39.6960 -79.4120 104° East 385 443 26,800 -1,560 Descending FlightAware
11:56PM 39.6760 -79.3100 104° East 384 442 25,600 -1,320 Descending FlightAware
11:57PM 39.6600 -79.2230 103° East 381 438 25,000 -480 Descending FlightAware
11:57PM 39.6410 -79.1270 104° East 381 438 25,000  Level FlightAware
11:58PM 39.6230 -79.0330 104° East 383 441 25,000  Level FlightAware
11:59PM 39.6060 -78.9450 104° East 383 441 25,000  Level FlightAware
12:00AM 39.5860 -78.8430 104° East 382 440 25,000 -540 Level FlightAware
12:00AM 39.5680 -78.7550 105° East 378 435 24,300 -1,560 Descending FlightAware
12:01AM 39.5490 -78.6570 104° East 369 425 22,800 -1,980 Descending FlightAware
12:02AM 39.5320 -78.5730 105° East 362 417 21,500 -1,980 Descending FlightAware
12:02AM 39.5160 -78.4890 104° East 355 409 20,200 -1,920 Descending FlightAware
12:03AM 39.4970 -78.3980 105° East 349 402 18,800 -1,920 Descending FlightAware
12:04AM 39.4820 -78.3200 104° East 347 399 17,500 -2,100 Descending FlightAware
12:04AM 39.4650 -78.2380 105° East 347 399 16,000 -1,920 Descending FlightAware
12:05AM 39.4470 -78.1470 104° East 337 388 14,800 -900 Descending FlightAware
12:06AM 39.4310 -78.0720 105° East 327 376 14,800  Level FlightAware
12:07AM 39.4140 -77.9880 105° East 326 375 14,800  Level FlightAware
12:07AM 39.3990 -77.9130 104° East 331 381 14,800  Level FlightAware
12:08AM 39.3880 -77.8370 101° East 336 387 14,800 -540 Level FlightAware
12:09AM 39.3910 -77.7460 88° East 329 379 14,100 -1,440 Descending FlightAware
12:09AM 39.3740 -77.6750 107° East 328 377 12,800 -1,680 Descending FlightAware
12:10AM 39.3530 -77.5890 108° East 307 353 11,800 -960 Descending FlightAware
12:11AM 39.3380 -77.5240 107° East 285 328 11,500 -1,020 Descending FlightAware
12:11AM 39.3200 -77.4520 108° East 274 315 10,400 -1,500 Descending FlightAware
12:12AM 39.3110 -77.4130 107° East 272 313 9,800 -1,440 Descending FlightAware
12:12AM 39.3000 -77.3680 108° East 270 311 9,100 -1,500 Descending FlightAware
12:13AM 39.2940 -77.3440 108° East 267 307 8,700 -1,500 Descending FlightAware
12:13AM 39.2840 -77.3030 107° East 263 303 8,100 -1,440 Descending FlightAware
12:14AM 39.2740 -77.2620 107° East 260 299 7,400 -1,200 Descending FlightAware
12:14AM 39.2650 -77.2230 107° East 251 289 7,000 -1,020 Descending FlightAware
12:14AM 39.2550 -77.1810 107° East 250 288 6,500 -1,080 Descending FlightAware
12:15AM 39.2510 -77.1640 107° East 248 285 6,200 -1,200 Descending FlightAware
12:15AM 39.2410 -77.1240 108° East 244 281 5,700 -1,200 Descending FlightAware
12:15AM 39.2350 -77.1000 108° East 242 278 5,300 -1,200 Descending FlightAware
12:16AM 39.2230 -77.0500 107° East 232 267 4,600 -840 Descending FlightAware
12:17AM 39.2130 -77.0110 108° East 215 247 4,400 -540 Descending FlightAware
12:17AM 39.2050 -76.9790 108° East 198 228 4,100 -600 Descending FlightAware
12:17AM 39.1980 -76.9480 106° East 203 234 3,900 -600 Descending FlightAware
12:18AM 39.1940 -76.9310 107° East 205 236 3,700 -960 Descending FlightAware
12:18AM 39.1860 -76.8960 106° East 193 222 3,200 -1,140 Descending FlightAware
12:19AM 39.1850 -76.8680 93° East 182 209 2,700 -1,020 Descending FlightAware
12:19AM 39.1830 -76.8380 95° East 170 196 2,300 -840 Descending FlightAware
12:20AM 39.1810 -76.8130 96° East 159 183 1,900 -900 Descending FlightAware
12:20AM 39.1810 -76.8030 90° East 158 182 1,700 -840 Descending FlightAware
12:20AM 39.1800 -76.7860 94° East 150 173 1,500 -600 Descending FlightAware
12:21AM 39.1833 -76.7500 94° East 139 160 1,200 -720 Descending Potomac TRACON
12:22AM 39.1833 -76.7000 90° East 138 159 400 -840 Descending Potomac TRACON